createdAt,value
2022-09-28T00:00:17.546Z,94.75
2022-09-28T00:02:44.207Z,94.67
2022-09-28T00:05:10.793Z,94.23
2022-09-28T00:07:37.386Z,94.20
2022-09-28T00:10:06.012Z,94.48
2022-09-28T00:12:32.648Z,95.03
2022-09-28T00:14:59.177Z,95.19
2022-09-28T00:17:25.818Z,95.18
2022-09-28T00:19:52.431Z,95.51
2022-09-28T00:22:19.086Z,95.93
2022-09-28T00:24:45.753Z,95.84
2022-09-28T00:27:13.741Z,95.50
2022-09-28T00:29:40.273Z,95.30
2022-09-28T00:32:10.255Z,95.21
2022-09-28T00:34:38.974Z,95.29
2022-09-28T00:37:06.892Z,95.25
2022-09-28T00:39:33.470Z,95.29
2022-09-28T00:42:00.068Z,95.30
2022-09-28T00:44:41.363Z,95.19
2022-09-28T00:47:19.833Z,95.51
2022-09-28T00:49:50.557Z,95.63
2022-09-28T00:52:22.636Z,95.82
2022-09-28T00:54:51.116Z,96.17
2022-09-28T00:57:18.052Z,95.96
2022-09-28T00:59:46.552Z,96.06
2022-09-28T01:02:13.132Z,95.87
2022-09-28T01:04:39.987Z,96.16
2022-09-28T01:07:08.786Z,95.75
2022-09-28T01:09:38.289Z,95.50
2022-09-28T01:12:05.301Z,95.45
2022-09-28T01:14:32.627Z,95.63
2022-09-28T01:17:07.800Z,95.51
2022-09-28T01:20:26.538Z,95.60
2022-09-28T01:23:19.782Z,95.85
2022-09-28T01:25:53.551Z,96.12
2022-09-28T01:28:25.499Z,96.17
2022-09-28T01:31:09.123Z,96.21
2022-09-28T01:33:41.803Z,96.18
2022-09-28T01:36:13.344Z,95.88
2022-09-28T01:38:46.306Z,96.15
2022-09-28T01:41:14.376Z,96.20
2022-09-28T01:43:47.751Z,95.53
2022-09-28T01:46:18.458Z,95.08
2022-09-28T01:48:51.374Z,95.11
2022-09-28T01:51:24.989Z,95.04
2022-09-28T01:53:57.065Z,94.93
2022-09-28T01:56:29.449Z,94.91
2022-09-28T01:59:05.197Z,94.74
2022-09-28T02:01:38.967Z,94.60
2022-09-28T02:04:12.010Z,94.21
2022-09-28T02:06:43.102Z,93.89
2022-09-28T02:09:15.628Z,93.95
2022-09-28T02:11:49.339Z,93.82
2022-09-28T02:14:18.487Z,93.67
2022-09-28T02:16:49.302Z,93.41
2022-09-28T02:19:18.955Z,93.94
2022-09-28T02:21:53.981Z,94.00
2022-09-28T02:24:28.179Z,94.11
2022-09-28T02:26:58.969Z,94.35
2022-09-28T02:29:33.722Z,94.47
2022-09-28T02:32:01.105Z,94.51
2022-09-28T02:34:28.112Z,94.58
2022-09-28T02:36:54.755Z,94.62
2022-09-28T02:39:22.022Z,94.62
2022-09-28T02:42:01.186Z,94.74
2022-09-28T02:44:50.808Z,94.74
2022-09-28T02:47:31.307Z,94.61
2022-09-28T02:50:12.446Z,94.57
2022-09-28T02:52:56.373Z,94.43
2022-09-28T02:55:36.495Z,94.66
2022-09-28T02:58:16.614Z,94.70
2022-09-28T03:00:52.904Z,94.88
2022-09-28T03:03:27.715Z,94.91
2022-09-28T03:06:02.150Z,94.90
2022-09-28T03:08:39.387Z,95.11
2022-09-28T03:11:14.643Z,95.01
2022-09-28T03:13:42.865Z,94.91
2022-09-28T03:16:13.877Z,94.99
2022-09-28T03:18:42.169Z,94.78
2022-09-28T03:21:11.176Z,95.04
2022-09-28T03:23:38.222Z,94.85
2022-09-28T03:26:04.998Z,95.01
2022-09-28T03:28:31.643Z,94.87
2022-09-28T03:30:58.190Z,94.98
2022-09-28T03:33:26.458Z,95.04
2022-09-28T03:35:53.646Z,95.01
2022-09-28T03:38:20.524Z,94.93
2022-09-28T03:40:52.805Z,94.93
2022-09-28T03:43:20.030Z,94.98
2022-09-28T03:45:51.856Z,95.10
2022-09-28T03:48:24.483Z,94.83
2022-09-28T03:50:56.061Z,95.05
2022-09-28T03:53:23.733Z,94.84
2022-09-28T03:55:50.652Z,94.67
2022-09-28T03:58:18.979Z,94.50
2022-09-28T04:00:45.779Z,94.76
2022-09-28T04:03:12.410Z,94.52
2022-09-28T04:05:39.157Z,94.27
2022-09-28T04:08:07.040Z,94.31
2022-09-28T04:10:33.587Z,94.06
2022-09-28T04:13:00.356Z,94.09
2022-09-28T04:15:27.165Z,94.15
2022-09-28T04:17:53.671Z,93.99
2022-09-28T04:20:39.401Z,93.95
2022-09-28T04:23:11.982Z,93.79
2022-09-28T04:25:38.640Z,93.63
2022-09-28T04:28:05.376Z,93.83
2022-09-28T04:30:32.029Z,93.60
2022-09-28T04:32:58.647Z,93.55
2022-09-28T04:35:27.990Z,93.55
2022-09-28T04:37:54.530Z,93.28
2022-09-28T04:40:22.974Z,92.94
2022-09-28T04:42:53.451Z,92.63
2022-09-28T04:45:20.000Z,92.55
2022-09-28T04:47:46.921Z,92.27
2022-09-28T04:50:30.198Z,92.34
2022-09-28T04:53:06.301Z,92.16
2022-09-28T04:55:34.334Z,92.03
2022-09-28T04:58:01.088Z,91.89
2022-09-28T05:00:27.871Z,92.01
2022-09-28T05:03:06.345Z,92.20
2022-09-28T05:05:58.978Z,92.17
2022-09-28T05:08:41.743Z,92.01
2022-09-28T05:11:11.976Z,91.98
2022-09-28T05:13:41.252Z,92.02
2022-09-28T05:16:09.232Z,91.92
2022-09-28T05:18:49.616Z,92.20
2022-09-28T05:21:16.401Z,92.33
2022-09-28T05:23:47.029Z,92.89
2022-09-28T05:26:15.332Z,92.96
2022-09-28T05:28:42.616Z,92.74
2022-09-28T05:31:27.836Z,92.15
2022-09-28T05:34:17.109Z,92.40
2022-09-28T05:36:45.546Z,92.58
2022-09-28T05:39:12.129Z,92.38
2022-09-28T05:41:40.450Z,92.53
2022-09-28T05:44:07.042Z,92.72
2022-09-28T05:46:35.084Z,93.07
2022-09-28T05:49:02.037Z,92.74
2022-09-28T05:51:28.801Z,92.33
2022-09-28T05:53:55.909Z,92.34
2022-09-28T05:56:25.071Z,92.37
2022-09-28T05:58:53.846Z,92.24
2022-09-28T06:01:22.902Z,92.59
2022-09-28T06:03:49.546Z,92.42
2022-09-28T06:06:16.901Z,92.67
2022-09-28T06:08:45.817Z,92.80
2022-09-28T06:11:31.446Z,92.64
2022-09-28T06:14:03.120Z,92.49
2022-09-28T06:16:31.507Z,92.17
2022-09-28T06:18:58.159Z,92.68
2022-09-28T06:21:44.202Z,92.62
2022-09-28T06:24:10.903Z,92.54
2022-09-28T06:26:37.741Z,92.48
2022-09-28T06:29:06.670Z,92.92
2022-09-28T06:31:33.431Z,92.55
2022-09-28T06:34:00.401Z,92.34
2022-09-28T06:36:28.627Z,91.79
2022-09-28T06:38:55.213Z,91.63
2022-09-28T06:41:22.843Z,91.59
2022-09-28T06:43:49.774Z,91.21
2022-09-28T06:46:36.464Z,91.29
2022-09-28T06:49:21.958Z,91.35
2022-09-28T06:52:11.469Z,91.15
2022-09-28T06:54:56.539Z,91.31
2022-09-28T06:57:29.873Z,91.41
2022-09-28T06:59:56.758Z,91.28
2022-09-28T07:02:24.763Z,91.18
2022-09-28T07:05:14.176Z,91.49
2022-09-28T07:07:58.800Z,91.18
2022-09-28T07:10:52.981Z,90.29
2022-09-28T07:16:15.150Z,89.68
2022-09-28T07:18:43.117Z,89.20
2022-09-28T07:21:17.857Z,88.74
2022-09-28T07:23:53.959Z,88.30
2022-09-28T07:26:24.721Z,87.77
2022-09-28T07:28:57.291Z,88.31
2022-09-28T07:31:31.858Z,88.17
2022-09-28T07:34:18.594Z,87.47
2022-09-28T07:37:03.940Z,87.61
2022-09-28T07:39:30.534Z,87.32
2022-09-28T07:42:02.590Z,87.68
2022-09-28T07:44:30.650Z,87.56
2022-09-28T07:46:58.009Z,87.73
2022-09-28T07:49:39.013Z,87.70
2022-09-28T07:52:28.506Z,87.32
2022-09-28T07:55:21.388Z,87.23
2022-09-28T07:57:59.192Z,87.31
2022-09-28T08:00:38.787Z,87.20
2022-09-28T08:03:05.470Z,86.91
2022-09-28T08:05:34.584Z,86.55
2022-09-28T08:08:02.342Z,86.49
2022-09-28T08:10:29.618Z,85.90
2022-09-28T08:13:17.208Z,85.94
2022-09-28T08:16:19.830Z,86.33
2022-09-28T08:18:57.908Z,86.91
2022-09-28T08:21:27.610Z,86.89
2022-09-28T08:23:54.401Z,87.04
2022-09-28T08:26:21.050Z,87.06
2022-09-28T08:28:47.693Z,86.95
2022-09-28T08:31:40.161Z,86.86
2022-09-28T08:34:25.407Z,86.73
2022-09-28T08:37:19.341Z,86.34
2022-09-28T08:39:45.874Z,86.76
2022-09-28T08:42:32.030Z,84.04
2022-09-28T08:45:18.513Z,84.86
2022-09-28T08:48:17.527Z,84.69
2022-09-28T08:51:17.719Z,82.58
2022-09-28T08:54:06.888Z,81.61
2022-09-28T08:56:50.183Z,81.94
2022-09-28T08:59:19.809Z,81.22
2022-09-28T09:01:58.108Z,80.73
2022-09-28T09:04:27.254Z,80.09
2022-09-28T09:07:31.646Z,78.61
2022-09-28T09:10:18.426Z,78.84
2022-09-28T09:12:58.795Z,78.94
2022-09-28T09:15:35.759Z,78.52
2022-09-28T09:18:20.632Z,80.22
2022-09-28T09:21:10.860Z,78.79
2022-09-28T09:23:53.791Z,76.21
2022-09-28T09:26:34.987Z,77.44
2022-09-28T09:29:28.487Z,77.32
2022-09-28T09:32:16.532Z,76.33
2022-09-28T09:35:07.443Z,77.06
2022-09-28T09:38:09.103Z,76.48
2022-09-28T09:41:06.459Z,76.23
2022-09-28T09:44:11.133Z,74.70
2022-09-28T09:46:54.232Z,74.98
2022-09-28T09:49:36.143Z,75.82
2022-09-28T09:52:09.494Z,75.99
2022-09-28T09:54:40.442Z,75.31
2022-09-28T09:57:15.312Z,75.95
2022-09-28T09:59:50.320Z,75.46
2022-09-28T10:02:27.726Z,73.71
2022-09-28T10:05:19.773Z,71.42
2022-09-28T10:07:52.603Z,72.03
2022-09-28T10:10:26.465Z,73.31
2022-09-28T10:12:57.117Z,71.40
2022-09-28T10:15:27.974Z,72.47
2022-09-28T10:18:18.759Z,72.87
2022-09-28T10:21:23.525Z,72.01
2022-09-28T10:23:56.438Z,72.00
2022-09-28T10:26:28.803Z,69.95
2022-09-28T10:29:00.607Z,68.33
2022-09-28T10:31:37.702Z,69.24
2022-09-28T10:34:10.560Z,69.21
2022-09-28T10:36:47.240Z,68.06
2022-09-28T10:39:36.023Z,68.25
2022-09-28T10:42:07.482Z,67.83
2022-09-28T10:44:43.565Z,69.33
2022-09-28T10:47:27.476Z,67.13
2022-09-28T10:49:55.889Z,67.35
2022-09-28T10:52:33.282Z,66.32
2022-09-28T10:55:01.455Z,66.43
2022-09-28T10:57:32.598Z,65.37
2022-09-28T11:00:06.149Z,65.21
2022-09-28T11:02:41.566Z,66.33
2022-09-28T11:05:21.983Z,64.65
2022-09-28T11:07:49.476Z,66.20
2022-09-28T11:10:22.476Z,64.44
2022-09-28T11:12:51.901Z,65.44
2022-09-28T11:15:22.135Z,66.35
2022-09-28T11:17:52.899Z,67.80
2022-09-28T11:20:31.995Z,67.45
2022-09-28T11:23:16.323Z,67.88
2022-09-28T11:25:43.819Z,65.99
2022-09-28T11:28:23.168Z,65.16
2022-09-28T11:30:52.573Z,65.71
2022-09-28T11:33:32.817Z,64.98
2022-09-28T11:36:31.776Z,65.05
2022-09-28T11:39:09.205Z,64.21
2022-09-28T11:42:16.504Z,61.56
2022-09-28T11:44:46.759Z,63.67
2022-09-28T11:47:37.425Z,63.30
2022-09-28T11:50:14.338Z,65.01
2022-09-28T11:52:49.326Z,65.64
2022-09-28T11:55:24.138Z,64.89
2022-09-28T11:58:00.363Z,64.29
2022-09-28T12:00:29.498Z,63.84
2022-09-28T12:03:06.814Z,63.89
2022-09-28T12:05:39.734Z,64.04
2022-09-28T12:08:13.268Z,61.07
2022-09-28T12:11:00.132Z,62.44
2022-09-28T12:13:49.379Z,62.96
2022-09-28T12:16:46.873Z,63.11
2022-09-28T12:19:16.801Z,63.21
2022-09-28T12:21:48.954Z,63.78
2022-09-28T12:24:19.802Z,64.77
2022-09-28T12:26:52.094Z,65.85
2022-09-28T12:29:22.706Z,66.21
2022-09-28T12:32:00.841Z,63.55
2022-09-28T12:34:27.508Z,64.40
2022-09-28T12:37:08.839Z,63.24
2022-09-28T12:39:58.122Z,62.14
2022-09-28T12:42:40.740Z,61.79
2022-09-28T12:45:23.456Z,61.72
2022-09-28T12:48:16.460Z,62.56
2022-09-28T12:51:00.562Z,61.68
2022-09-28T12:53:45.642Z,63.24
2022-09-28T12:56:26.050Z,62.80
2022-09-28T12:59:03.671Z,61.43
2022-09-28T13:01:50.137Z,62.88
2022-09-28T13:04:43.447Z,62.30
2022-09-28T13:07:19.249Z,60.26
2022-09-28T13:09:58.469Z,60.66
2022-09-28T13:12:36.764Z,60.91
2022-09-28T13:15:37.520Z,60.85
2022-09-28T13:18:12.413Z,59.08
2022-09-28T13:21:07.043Z,59.56
2022-09-28T13:23:37.634Z,59.84
2022-09-28T13:26:14.963Z,59.96
2022-09-28T13:28:44.235Z,60.00
2022-09-28T13:31:12.248Z,60.09
2022-09-28T13:33:43.042Z,60.16
2022-09-28T13:36:37.314Z,60.79
2022-09-28T13:39:03.951Z,62.07
2022-09-28T13:41:36.076Z,62.61
2022-09-28T13:44:33.736Z,62.56
2022-09-28T13:47:26.086Z,62.08
2022-09-28T13:50:03.574Z,61.16
2022-09-28T13:52:43.312Z,60.16
2022-09-28T13:55:22.286Z,60.04
2022-09-28T13:57:55.485Z,61.19
2022-09-28T14:00:28.289Z,61.63
2022-09-28T14:02:59.103Z,62.00
2022-09-28T14:05:44.029Z,61.95
2022-09-28T14:08:27.049Z,61.14
2022-09-28T14:10:55.742Z,61.37
2022-09-28T14:14:01.880Z,61.45
2022-09-28T14:16:30.620Z,60.79
2022-09-28T14:19:02.777Z,60.49
2022-09-28T14:21:55.427Z,59.13
2022-09-28T14:24:31.688Z,60.28
2022-09-28T14:27:18.232Z,61.54
2022-09-28T14:29:50.693Z,61.52
2022-09-28T14:32:23.249Z,61.75
2022-09-28T14:34:56.827Z,60.79
2022-09-28T14:37:28.707Z,61.15
2022-09-28T14:39:55.343Z,61.42
2022-09-28T14:42:24.495Z,61.96
2022-09-28T14:45:33.309Z,59.35
2022-09-28T14:48:17.843Z,60.57
2022-09-28T14:50:44.657Z,60.38
2022-09-28T14:53:13.550Z,60.63
2022-09-28T14:55:47.087Z,59.61
2022-09-28T14:58:18.978Z,59.42
2022-09-28T15:00:49.972Z,59.14
2022-09-28T15:03:17.960Z,58.97
2022-09-28T15:05:46.022Z,58.53
2022-09-28T15:08:13.155Z,58.67
2022-09-28T15:10:45.735Z,59.46
2022-09-28T15:13:22.207Z,58.53
2022-09-28T15:15:53.657Z,58.72
2022-09-28T15:18:47.723Z,56.97
2022-09-28T15:21:14.389Z,57.42
2022-09-28T15:23:42.647Z,58.02
2022-09-28T15:26:22.182Z,58.93
2022-09-28T15:28:48.830Z,59.03
2022-09-28T15:31:19.826Z,59.10
2022-09-28T15:33:46.776Z,60.07
2022-09-28T15:36:19.618Z,59.46
2022-09-28T15:38:57.067Z,59.63
2022-09-28T15:41:25.245Z,60.77
2022-09-28T15:44:07.821Z,60.77
2022-09-28T15:46:39.439Z,61.74
2022-09-28T15:49:07.423Z,62.57
2022-09-28T15:51:51.043Z,60.29
2022-09-28T15:54:23.750Z,61.21
2022-09-28T15:56:51.817Z,62.21
2022-09-28T15:59:25.801Z,63.38
2022-09-28T16:02:14.820Z,62.88
2022-09-28T16:04:58.525Z,62.54
2022-09-28T16:07:33.801Z,62.09
2022-09-28T16:10:27.468Z,62.39
2022-09-28T16:12:57.131Z,61.79
2022-09-28T16:15:27.628Z,59.60
2022-09-28T16:17:58.096Z,61.71
2022-09-28T16:20:29.912Z,61.43
2022-09-28T16:22:59.490Z,63.72
2022-09-28T16:25:27.214Z,64.21
2022-09-28T16:27:55.573Z,65.51
2022-09-28T16:30:24.501Z,65.98
2022-09-28T16:32:54.099Z,64.22
2022-09-28T16:35:25.485Z,65.02
2022-09-28T16:38:11.291Z,65.08
2022-09-28T16:40:42.265Z,64.53
2022-09-28T16:43:16.974Z,64.12
2022-09-28T16:45:43.620Z,66.49
2022-09-28T16:48:14.107Z,65.35
2022-09-28T16:50:42.012Z,66.82
2022-09-28T16:53:14.103Z,67.13
2022-09-28T16:55:41.443Z,66.64
2022-09-28T16:58:08.397Z,68.03
2022-09-28T17:00:35.130Z,69.05
2022-09-28T17:03:01.684Z,69.85
2022-09-28T17:05:28.262Z,70.42
2022-09-28T17:08:00.183Z,70.52
2022-09-28T17:10:45.080Z,72.04
2022-09-28T17:13:23.001Z,74.57
2022-09-28T17:15:49.729Z,74.85
2022-09-28T17:18:18.090Z,75.51
2022-09-28T17:20:48.053Z,75.89
2022-09-28T17:23:16.268Z,76.31
2022-09-28T17:25:43.677Z,75.98
2022-09-28T17:28:19.323Z,76.69
2022-09-28T17:30:45.993Z,77.11
2022-09-28T17:33:12.524Z,78.18
2022-09-28T17:35:39.907Z,78.66
2022-09-28T17:38:06.502Z,78.66
2022-09-28T17:40:34.552Z,78.87
2022-09-28T17:43:01.181Z,79.69
2022-09-28T17:45:30.278Z,79.87
2022-09-28T17:47:58.650Z,81.04
2022-09-28T17:50:27.292Z,81.20
2022-09-28T17:52:54.757Z,81.27
2022-09-28T17:55:23.402Z,81.85
2022-09-28T17:57:51.298Z,82.30
2022-09-28T18:00:18.583Z,82.29
2022-09-28T18:02:45.409Z,82.72
2022-09-28T18:05:12.631Z,83.12
2022-09-28T18:07:39.158Z,83.72
2022-09-28T18:10:06.539Z,83.98
2022-09-28T18:12:34.152Z,84.22
2022-09-28T18:15:02.132Z,84.21
2022-09-28T18:17:28.747Z,84.67
2022-09-28T18:19:55.362Z,84.80
2022-09-28T18:22:22.007Z,84.88
2022-09-28T18:24:48.799Z,85.05
2022-09-28T18:27:15.414Z,84.99
2022-09-28T18:29:44.477Z,85.42
2022-09-28T18:32:12.342Z,85.28
2022-09-28T18:34:38.988Z,85.44
2022-09-28T18:37:05.874Z,85.50
2022-09-28T18:39:34.503Z,85.29
2022-09-28T18:42:01.036Z,85.89
2022-09-28T18:44:27.764Z,85.93
2022-09-28T18:46:54.327Z,85.79
2022-09-28T18:49:22.890Z,85.89
2022-09-28T18:51:49.910Z,86.15
2022-09-28T18:54:16.942Z,86.32
2022-09-28T18:56:43.488Z,86.19
2022-09-28T18:59:12.324Z,86.54
2022-09-28T19:01:39.993Z,86.77
2022-09-28T19:04:08.483Z,86.82
2022-09-28T19:06:40.569Z,87.31
2022-09-28T19:09:08.274Z,87.68
2022-09-28T19:11:35.100Z,87.61
2022-09-28T19:14:02.135Z,87.84
2022-09-28T19:16:30.161Z,87.86
2022-09-28T19:18:57.691Z,87.90
2022-09-28T19:21:24.716Z,88.08
2022-09-28T19:23:52.759Z,88.05
2022-09-28T19:26:22.365Z,88.16
2022-09-28T19:28:49.561Z,87.81
2022-09-28T19:31:17.061Z,87.82
2022-09-28T19:33:43.618Z,87.97
2022-09-28T19:36:12.679Z,87.54
2022-09-28T19:38:40.321Z,87.87
2022-09-28T19:41:12.686Z,87.98
2022-09-28T19:43:39.485Z,88.10
2022-09-28T19:46:06.765Z,88.55
2022-09-28T19:48:34.396Z,88.25
2022-09-28T19:51:02.745Z,88.47
2022-09-28T19:53:31.760Z,88.54
2022-09-28T19:55:59.858Z,88.53
2022-09-28T19:58:32.030Z,88.82
2022-09-28T20:00:58.672Z,88.82
2022-09-28T20:03:25.586Z,88.78
2022-09-28T20:05:56.692Z,88.73
2022-09-28T20:08:23.320Z,89.00
2022-09-28T20:10:50.042Z,89.16
2022-09-28T20:13:16.647Z,89.22
2022-09-28T20:15:44.815Z,89.12
2022-09-28T20:18:11.508Z,89.15
2022-09-28T20:20:38.404Z,88.77
2022-09-28T20:23:05.206Z,89.09
2022-09-28T20:25:31.757Z,89.29
2022-09-28T20:27:58.425Z,89.25
2022-09-28T20:30:25.062Z,89.71
2022-09-28T20:32:53.023Z,89.90
2022-09-28T20:35:32.272Z,90.37
2022-09-28T20:37:59.745Z,90.46
2022-09-28T20:40:26.339Z,90.55
2022-09-28T20:42:53.608Z,90.32
2022-09-28T20:45:20.209Z,90.64
2022-09-28T20:47:46.798Z,90.63
2022-09-28T20:50:14.941Z,90.66
2022-09-28T20:52:41.729Z,90.74
2022-09-28T20:55:08.708Z,90.84
2022-09-28T20:57:35.349Z,91.09
2022-09-28T21:00:01.895Z,91.02
2022-09-28T21:02:28.842Z,90.94
2022-09-28T21:04:55.366Z,90.99
2022-09-28T21:07:23.327Z,91.23
2022-09-28T21:09:49.856Z,91.22
2022-09-28T21:12:16.613Z,91.14
2022-09-28T21:14:43.151Z,91.30
2022-09-28T21:17:09.801Z,91.72
2022-09-28T21:19:36.383Z,91.69
2022-09-28T21:22:03.004Z,91.81
2022-09-28T21:24:30.995Z,91.94
2022-09-28T21:26:57.620Z,92.09
2022-09-28T21:29:24.109Z,92.15
2022-09-28T21:31:50.894Z,91.99
2022-09-28T21:34:19.773Z,92.14
2022-09-28T21:36:47.501Z,92.21
2022-09-28T21:39:14.372Z,92.46
2022-09-28T21:41:42.317Z,92.52
2022-09-28T21:44:09.164Z,92.52
2022-09-28T21:46:36.559Z,92.37
2022-09-28T21:49:05.441Z,92.28
2022-09-28T21:51:32.431Z,92.66
2022-09-28T21:53:59.234Z,92.70
2022-09-28T21:56:26.650Z,92.55
2022-09-28T21:58:54.549Z,92.79
2022-09-28T22:01:23.278Z,92.62
2022-09-28T22:03:52.044Z,92.35
2022-09-28T22:06:20.346Z,92.79
2022-09-28T22:08:48.002Z,92.44
2022-09-28T22:11:17.007Z,92.51
2022-09-28T22:13:46.491Z,92.44
2022-09-28T22:16:16.940Z,92.52
2022-09-28T22:18:44.539Z,92.93
2022-09-28T22:21:14.195Z,92.86
2022-09-28T22:23:41.347Z,92.38
2022-09-28T22:26:09.980Z,92.50
2022-09-28T22:28:37.107Z,92.47
2022-09-28T22:31:04.444Z,92.30
2022-09-28T22:33:32.381Z,92.24
2022-09-28T22:35:58.856Z,92.68
2022-09-28T22:38:25.459Z,92.22
2022-09-28T22:40:54.543Z,92.31
2022-09-28T22:43:22.025Z,92.32
2022-09-28T22:45:48.646Z,92.03
2022-09-28T22:48:15.590Z,91.85
2022-09-28T22:50:50.151Z,91.97
2022-09-28T22:53:16.967Z,91.80
2022-09-28T22:55:43.599Z,91.73
2022-09-28T22:58:10.508Z,92.14
2022-09-28T23:00:37.152Z,92.16
2022-09-28T23:03:04.093Z,92.55
2022-09-28T23:05:30.946Z,92.94
2022-09-28T23:07:58.942Z,93.22
2022-09-28T23:10:25.435Z,93.32
2022-09-28T23:12:53.302Z,93.22
2022-09-28T23:15:19.797Z,93.42
2022-09-28T23:17:50.606Z,93.33
2022-09-28T23:20:17.227Z,93.28
2022-09-28T23:22:45.813Z,93.33
2022-09-28T23:25:14.591Z,93.16
2022-09-28T23:27:45.075Z,93.18
2022-09-28T23:30:12.165Z,93.41
2022-09-28T23:32:38.657Z,93.34
2022-09-28T23:35:06.333Z,93.47
2022-09-28T23:37:32.887Z,93.73
2022-09-28T23:39:59.618Z,93.26
2022-09-28T23:42:27.491Z,93.60
2022-09-28T23:44:54.115Z,93.89
2022-09-28T23:47:21.156Z,93.95
2022-09-28T23:49:47.769Z,93.99
2022-09-28T23:52:14.279Z,94.28
2022-09-28T23:54:40.916Z,94.25
2022-09-28T23:57:07.457Z,94.47
2022-09-28T23:59:35.375Z,94.25
